Terminal Aerodrome Forecast
Issued by NWS

Home | Current Version | Previous Version | Text Only | Print | Product List | Glossary Off
Versions: 1 2 3 4 5 6 7 8 9 10 11 12 13 14 15 16 17 18 19 20 21 22 23

535
FTUS43 KBIS 151632 AAA
TAFDIK
TAF AMD
KDIK 151632Z 1517/1612 12006KT 3SM -SHRA BR OVC003
      TEMPO 1518/1520 6SM SCT004 OVC008
     FM152000 04005KT P6SM VCTS OVC015CB
     FM152200 01007KT P6SM BKN040
     FM160200 08007KT P6SM SCT150=

USA.gov is the U.S. government's official web portal to all federal, state and local government web resources and services.